createdAt,value
2023-03-29T00:01:42.961Z,-1.13
2023-03-29T00:04:10.578Z,-1.25
2023-03-29T00:06:38.067Z,-1.28
2023-03-29T00:09:06.184Z,-1.32
2023-03-29T00:11:33.155Z,-1.29
2023-03-29T00:14:00.014Z,-1.25
2023-03-29T00:16:27.197Z,-1.26
2023-03-29T00:18:53.987Z,-1.15
2023-03-29T00:21:20.846Z,-1.05
2023-03-29T00:23:47.606Z,-1.08
2023-03-29T00:26:14.405Z,-1.08
2023-03-29T00:28:41.330Z,-1.03
2023-03-29T00:31:13.773Z,-1.01
2023-03-29T00:33:41.897Z,-0.98
2023-03-29T00:36:10.491Z,-0.96
2023-03-29T00:38:37.648Z,-0.91
2023-03-29T00:41:06.741Z,-0.90
2023-03-29T00:44:00.967Z,-0.88
2023-03-29T00:46:30.526Z,-0.84
2023-03-29T00:49:08.066Z,-0.81
2023-03-29T00:51:39.777Z,-0.81
2023-03-29T00:54:10.710Z,-0.76
2023-03-29T00:56:42.580Z,-0.71
2023-03-29T00:59:16.509Z,-0.70
2023-03-29T01:01:54.587Z,-0.66
2023-03-29T01:04:43.650Z,-0.59
2023-03-29T01:07:22.515Z,-0.56
2023-03-29T01:09:55.116Z,-0.52
2023-03-29T01:12:28.057Z,-0.52
2023-03-29T01:15:01.793Z,-0.52
2023-03-29T01:17:31.902Z,-0.51
2023-03-29T01:20:14.424Z,-0.41
2023-03-29T01:22:44.123Z,-0.38
2023-03-29T01:25:37.101Z,-0.47
2023-03-29T01:28:26.857Z,-0.33
2023-03-29T01:31:08.522Z,-0.38
2023-03-29T01:33:42.834Z,-0.37
2023-03-29T01:36:25.149Z,-0.37
2023-03-29T01:38:57.360Z,-0.32
2023-03-29T01:41:34.399Z,-0.43
2023-03-29T01:44:10.187Z,-0.43
2023-03-29T01:46:46.524Z,-0.33
2023-03-29T01:49:24.510Z,-0.28
2023-03-29T01:52:17.181Z,-0.29
2023-03-29T01:54:53.025Z,-0.23
2023-03-29T01:57:20.128Z,-0.23
2023-03-29T01:59:48.210Z,-0.20
2023-03-29T02:02:18.913Z,-0.17
2023-03-29T02:04:51.934Z,-0.16
2023-03-29T02:07:24.339Z,-0.14
2023-03-29T02:09:53.875Z,-0.12
2023-03-29T02:12:20.930Z,-0.05
2023-03-29T02:14:47.699Z,-0.05
2023-03-29T02:17:23.663Z,-0.06
2023-03-29T02:20:14.880Z,-0.02
2023-03-29T02:22:46.550Z,0.00
2023-03-29T02:25:13.415Z,0.01
2023-03-29T02:27:40.192Z,-0.01
2023-03-29T02:30:10.257Z,-0.05
2023-03-29T02:32:49.157Z,0.02
2023-03-29T02:35:27.111Z,-0.02
2023-03-29T02:37:56.636Z,0.01
2023-03-29T02:40:26.168Z,0.02
2023-03-29T02:42:56.173Z,-0.01
2023-03-29T02:45:24.374Z,-0.04
2023-03-29T02:47:55.793Z,-0.05
2023-03-29T02:50:24.730Z,-0.10
2023-03-29T02:52:59.471Z,-0.13
2023-03-29T02:55:35.014Z,-0.14
2023-03-29T02:58:13.613Z,-0.07
2023-03-29T03:00:45.493Z,-0.07
2023-03-29T03:03:15.683Z,-0.12
2023-03-29T03:05:43.576Z,-0.08
2023-03-29T03:08:10.230Z,-0.07
2023-03-29T03:10:37.589Z,-0.16
2023-03-29T03:13:04.528Z,-0.17
2023-03-29T03:15:31.524Z,-0.18
2023-03-29T03:17:58.371Z,-0.19
2023-03-29T03:20:26.701Z,-0.24
2023-03-29T03:22:53.412Z,-0.30
2023-03-29T03:25:22.322Z,-0.38
2023-03-29T03:27:49.917Z,-0.39
2023-03-29T03:30:17.155Z,-0.41
2023-03-29T03:32:44.929Z,-0.38
2023-03-29T03:35:11.952Z,-0.39
2023-03-29T03:37:39.713Z,-0.41
2023-03-29T03:40:12.118Z,-0.39
2023-03-29T03:42:42.182Z,-0.31
2023-03-29T03:45:11.217Z,-0.27
2023-03-29T03:47:38.183Z,-0.24
2023-03-29T03:50:06.375Z,-0.19
2023-03-29T03:52:33.225Z,-0.21
2023-03-29T03:55:00.019Z,-0.23
2023-03-29T03:57:26.733Z,-0.17
2023-03-29T03:59:53.478Z,-0.18
2023-03-29T04:02:20.832Z,-0.18
2023-03-29T04:04:47.865Z,-0.19
2023-03-29T04:07:14.642Z,-0.11
2023-03-29T04:09:41.336Z,-0.06
2023-03-29T04:12:08.076Z,-0.12
2023-03-29T04:14:35.849Z,-0.18
2023-03-29T04:17:02.623Z,-0.16
2023-03-29T04:19:29.413Z,-0.19
2023-03-29T04:21:56.194Z,-0.15
2023-03-29T04:24:23.492Z,-0.10
2023-03-29T04:26:50.315Z,-0.12
2023-03-29T04:29:17.129Z,-0.20
2023-03-29T04:31:43.930Z,-0.16
2023-03-29T04:34:10.866Z,-0.14
2023-03-29T04:36:37.713Z,-0.18
2023-03-29T04:39:04.731Z,-0.15
2023-03-29T04:41:32.814Z,-0.22
2023-03-29T04:43:59.505Z,-0.26
2023-03-29T04:46:26.975Z,-0.23
2023-03-29T04:48:54.421Z,-0.26
2023-03-29T04:51:22.503Z,-0.26
2023-03-29T04:53:50.467Z,-0.26
2023-03-29T04:56:17.481Z,-0.28
2023-03-29T04:58:44.823Z,-0.29
2023-03-29T05:01:11.809Z,-0.24
2023-03-29T05:03:38.794Z,-0.19
2023-03-29T05:06:10.045Z,-0.20
2023-03-29T05:08:39.386Z,-0.18
2023-03-29T05:11:08.754Z,-0.11
2023-03-29T05:13:35.630Z,-0.07
2023-03-29T05:16:02.848Z,-0.06
2023-03-29T05:18:30.558Z,-0.03
2023-03-29T05:20:58.805Z,0.07
2023-03-29T05:23:26.425Z,0.18
2023-03-29T05:25:53.870Z,0.23
2023-03-29T05:28:21.272Z,0.37
2023-03-29T05:30:48.836Z,0.40
2023-03-29T05:33:15.618Z,0.48
2023-03-29T05:35:42.397Z,0.53
2023-03-29T05:38:09.147Z,0.66
2023-03-29T05:40:36.135Z,0.74
2023-03-29T05:43:03.164Z,0.76
2023-03-29T05:45:30.228Z,0.88
2023-03-29T05:47:57.813Z,0.89
2023-03-29T05:50:24.973Z,0.95
2023-03-29T05:52:51.813Z,1.14
2023-03-29T05:55:18.675Z,1.19
2023-03-29T05:57:45.413Z,1.45
2023-03-29T06:00:24.330Z,1.50
2023-03-29T06:02:59.301Z,1.58
2023-03-29T06:05:33.493Z,1.68
2023-03-29T06:08:00.833Z,1.78
2023-03-29T06:10:27.876Z,1.89
2023-03-29T06:12:54.734Z,1.97
2023-03-29T06:15:22.305Z,2.02
2023-03-29T06:17:49.106Z,2.02
2023-03-29T06:20:17.224Z,2.19
2023-03-29T06:22:44.253Z,2.19
2023-03-29T06:25:11.327Z,2.24
2023-03-29T06:27:38.292Z,2.31
2023-03-29T06:30:06.461Z,2.46
2023-03-29T06:32:36.520Z,2.53
2023-03-29T06:35:05.157Z,2.51
2023-03-29T06:37:34.960Z,2.60
2023-03-29T06:40:06.572Z,2.76
2023-03-29T06:42:33.899Z,2.77
2023-03-29T06:45:00.626Z,2.89
2023-03-29T06:47:31.108Z,3.05
2023-03-29T06:49:57.841Z,3.28
2023-03-29T06:52:25.112Z,3.33
2023-03-29T06:54:51.884Z,3.41
2023-03-29T06:57:18.996Z,3.48
2023-03-29T06:59:46.702Z,3.36
2023-03-29T07:02:13.406Z,3.37
2023-03-29T07:04:41.973Z,3.44
2023-03-29T07:07:20.222Z,3.50
2023-03-29T07:09:54.337Z,3.52
2023-03-29T07:12:24.845Z,3.61
2023-03-29T07:14:51.575Z,3.78
2023-03-29T07:17:18.702Z,3.86
2023-03-29T07:19:45.614Z,3.83
2023-03-29T07:22:12.414Z,3.89
2023-03-29T07:24:39.275Z,3.99
2023-03-29T07:27:06.029Z,3.95
2023-03-29T07:29:32.913Z,4.18
2023-03-29T07:32:00.357Z,4.45
2023-03-29T07:34:27.401Z,4.52
2023-03-29T07:36:54.849Z,4.49
2023-03-29T07:39:22.551Z,4.56
2023-03-29T07:41:49.153Z,4.52
2023-03-29T07:44:19.445Z,4.60
2023-03-29T07:46:46.133Z,4.78
2023-03-29T07:49:12.944Z,4.82
2023-03-29T07:51:39.735Z,4.99
2023-03-29T07:54:06.954Z,5.05
2023-03-29T07:56:33.741Z,5.25
2023-03-29T07:59:00.524Z,5.34
2023-03-29T08:01:27.282Z,5.27
2023-03-29T08:03:54.119Z,5.50
2023-03-29T08:06:21.342Z,5.59
2023-03-29T08:08:48.115Z,5.78
2023-03-29T08:11:15.433Z,5.76
2023-03-29T08:13:42.729Z,5.86
2023-03-29T08:16:09.587Z,6.06
2023-03-29T08:18:36.334Z,6.06
2023-03-29T08:21:03.249Z,6.14
2023-03-29T08:23:30.636Z,6.31
2023-03-29T08:25:57.369Z,6.59
2023-03-29T08:28:24.529Z,6.59
2023-03-29T08:30:51.259Z,6.74
2023-03-29T08:33:18.125Z,6.85
2023-03-29T08:35:44.988Z,7.06
2023-03-29T08:38:12.743Z,7.22
2023-03-29T08:40:39.783Z,7.37
2023-03-29T08:43:26.241Z,7.37
2023-03-29T08:46:01.891Z,7.39
2023-03-29T08:48:38.315Z,7.54
2023-03-29T08:51:13.533Z,7.76
2023-03-29T08:53:45.329Z,8.19
2023-03-29T08:56:17.981Z,8.27
2023-03-29T08:58:49.608Z,8.14
2023-03-29T09:01:17.044Z,8.33
2023-03-29T09:03:46.489Z,8.66
2023-03-29T09:06:13.815Z,9.17
2023-03-29T09:08:45.281Z,9.00
2023-03-29T09:11:24.111Z,9.40
2023-03-29T09:14:09.413Z,9.13
2023-03-29T09:16:38.955Z,8.90
2023-03-29T09:19:06.531Z,9.18
2023-03-29T09:21:39.840Z,9.45
2023-03-29T09:24:32.672Z,10.16
2023-03-29T09:27:13.756Z,10.04
2023-03-29T09:29:52.750Z,10.16
2023-03-29T09:32:27.841Z,9.74
2023-03-29T09:35:46.145Z,9.26
2023-03-29T09:38:15.197Z,8.74
2023-03-29T09:40:54.382Z,8.56
2023-03-29T09:43:34.699Z,9.14
2023-03-29T09:46:16.147Z,9.75
2023-03-29T09:48:45.964Z,9.86
2023-03-29T09:51:13.376Z,10.59
2023-03-29T09:53:40.038Z,10.89
2023-03-29T09:56:08.575Z,10.76
2023-03-29T09:58:36.339Z,11.08
2023-03-29T10:01:09.533Z,11.82
2023-03-29T10:03:37.247Z,11.36
2023-03-29T10:06:07.320Z,11.05
2023-03-29T10:08:50.676Z,10.42
2023-03-29T10:11:33.219Z,10.29
2023-03-29T10:14:14.269Z,10.19
2023-03-29T10:16:46.446Z,10.17
2023-03-29T10:19:23.836Z,10.15
2023-03-29T10:21:53.088Z,9.82
2023-03-29T10:24:24.905Z,9.78
2023-03-29T10:26:57.911Z,10.01
2023-03-29T10:29:26.064Z,11.10
2023-03-29T10:31:53.330Z,11.32
2023-03-29T10:34:25.438Z,11.16
2023-03-29T10:37:00.132Z,10.98
2023-03-29T10:39:29.986Z,11.89
2023-03-29T10:41:59.516Z,11.90
2023-03-29T10:44:36.845Z,12.30
2023-03-29T10:47:16.490Z,11.63
2023-03-29T10:49:47.682Z,10.64
2023-03-29T10:52:15.412Z,11.21
2023-03-29T10:54:42.324Z,12.40
2023-03-29T10:57:13.022Z,11.51
2023-03-29T10:59:46.461Z,10.68
2023-03-29T11:02:15.957Z,10.85
2023-03-29T11:05:07.265Z,11.00
2023-03-29T11:07:44.460Z,10.87
2023-03-29T11:10:17.116Z,10.79
2023-03-29T11:12:57.649Z,10.74
2023-03-29T11:15:54.370Z,10.71
2023-03-29T11:18:36.478Z,10.66
2023-03-29T11:21:10.739Z,10.76
2023-03-29T11:23:37.691Z,11.04
2023-03-29T11:26:25.089Z,10.80
2023-03-29T11:29:11.112Z,10.58
2023-03-29T11:32:06.778Z,10.12
2023-03-29T11:34:37.091Z,10.28
2023-03-29T11:37:31.425Z,10.70
2023-03-29T11:40:27.084Z,10.94
2023-03-29T11:42:57.061Z,10.66
2023-03-29T11:45:32.687Z,10.46
2023-03-29T11:48:03.070Z,10.65
2023-03-29T11:50:50.439Z,10.82
2023-03-29T11:53:32.536Z,10.86
2023-03-29T11:56:10.680Z,11.06
2023-03-29T11:58:42.713Z,11.19
2023-03-29T12:01:36.123Z,10.93
2023-03-29T12:04:11.474Z,10.93
2023-03-29T12:06:48.359Z,10.70
2023-03-29T12:09:36.762Z,10.69
2023-03-29T12:12:10.171Z,10.52
2023-03-29T12:14:57.050Z,10.56
2023-03-29T12:17:31.168Z,10.85
2023-03-29T12:19:57.898Z,11.16
2023-03-29T12:22:24.722Z,11.16
2023-03-29T12:24:54.277Z,11.20
2023-03-29T12:27:32.135Z,11.07
2023-03-29T12:30:56.318Z,10.90
2023-03-29T12:33:53.466Z,10.90
2023-03-29T12:36:44.094Z,11.01
2023-03-29T12:39:16.273Z,10.73
2023-03-29T12:41:45.848Z,10.64
2023-03-29T12:44:15.731Z,10.80
2023-03-29T12:46:43.375Z,10.80
2023-03-29T12:49:31.689Z,10.46
2023-03-29T12:52:00.799Z,10.59
2023-03-29T12:54:31.716Z,10.79
2023-03-29T12:57:19.466Z,10.95
2023-03-29T12:59:49.220Z,11.01
2023-03-29T13:02:16.166Z,11.13
2023-03-29T13:04:42.841Z,10.92
2023-03-29T13:07:23.200Z,10.87
2023-03-29T13:09:54.013Z,10.56
2023-03-29T13:12:40.683Z,10.66
2023-03-29T13:15:17.104Z,10.88
2023-03-29T13:18:24.961Z,11.24
2023-03-29T13:21:24.107Z,11.31
2023-03-29T13:23:56.406Z,11.51
2023-03-29T13:26:50.976Z,11.60
2023-03-29T13:29:17.617Z,11.40
2023-03-29T13:31:52.526Z,10.89
2023-03-29T13:35:02.478Z,10.84
2023-03-29T13:37:32.365Z,10.86
2023-03-29T13:39:59.359Z,10.81
2023-03-29T13:42:35.525Z,10.82
2023-03-29T13:45:25.491Z,10.75
2023-03-29T13:48:22.650Z,10.59
2023-03-29T13:51:11.094Z,10.52
2023-03-29T13:53:51.974Z,10.33
2023-03-29T13:56:28.562Z,10.29
2023-03-29T13:59:05.801Z,10.30
2023-03-29T14:01:43.384Z,10.30
2023-03-29T14:04:20.689Z,10.34
2023-03-29T14:06:53.327Z,10.37
2023-03-29T14:09:24.680Z,10.35
2023-03-29T14:11:52.117Z,10.38
2023-03-29T14:14:22.044Z,10.53
2023-03-29T14:16:48.931Z,10.51
2023-03-29T14:19:28.765Z,10.60
2023-03-29T14:21:55.923Z,10.56
2023-03-29T14:24:27.295Z,10.45
2023-03-29T14:26:55.006Z,10.44
2023-03-29T14:29:24.287Z,10.45
2023-03-29T14:31:52.295Z,10.41
2023-03-29T14:34:19.446Z,10.47
2023-03-29T14:36:54.321Z,10.36
2023-03-29T14:39:23.352Z,10.29
2023-03-29T14:41:53.013Z,10.22
2023-03-29T14:44:26.160Z,10.16
2023-03-29T14:46:54.240Z,10.15
2023-03-29T14:49:23.148Z,10.09
2023-03-29T14:51:51.022Z,10.01
2023-03-29T14:54:24.161Z,10.01
2023-03-29T14:56:51.915Z,9.95
2023-03-29T14:59:36.749Z,9.97
2023-03-29T15:02:04.841Z,9.92
2023-03-29T15:04:35.871Z,9.90
2023-03-29T15:07:06.042Z,9.88
2023-03-29T15:09:34.824Z,9.88
2023-03-29T15:12:03.614Z,9.96
2023-03-29T15:14:38.238Z,9.95
2023-03-29T15:17:17.450Z,10.00
2023-03-29T15:19:44.286Z,10.04
2023-03-29T15:22:11.544Z,9.97
2023-03-29T15:24:43.406Z,9.95
2023-03-29T15:27:19.826Z,9.93
2023-03-29T15:29:47.626Z,9.92
2023-03-29T15:32:23.431Z,9.96
2023-03-29T15:35:03.189Z,10.05
2023-03-29T15:37:29.945Z,10.08
2023-03-29T15:39:56.998Z,10.18
2023-03-29T15:42:24.950Z,10.24
2023-03-29T15:44:56.548Z,10.19
2023-03-29T15:47:24.273Z,10.12
2023-03-29T15:49:51.255Z,10.11
2023-03-29T15:52:18.042Z,10.15
2023-03-29T15:54:44.843Z,10.20
2023-03-29T15:57:16.373Z,10.23
2023-03-29T15:59:43.950Z,10.19
2023-03-29T16:02:15.969Z,10.21
2023-03-29T16:04:43.483Z,10.26
2023-03-29T16:07:13.668Z,10.22
2023-03-29T16:09:40.519Z,10.18
2023-03-29T16:12:07.365Z,10.17
2023-03-29T16:14:34.107Z,10.12
2023-03-29T16:17:01.602Z,10.06
2023-03-29T16:19:31.257Z,10.02
2023-03-29T16:21:59.240Z,9.99
2023-03-29T16:24:28.371Z,9.98
2023-03-29T16:26:56.581Z,9.94
2023-03-29T16:29:24.746Z,10.00
2023-03-29T16:31:53.079Z,9.98
2023-03-29T16:34:20.523Z,9.92
2023-03-29T16:36:48.114Z,9.87
2023-03-29T16:39:15.329Z,9.79
2023-03-29T16:41:43.022Z,9.75
2023-03-29T16:44:16.004Z,9.75
2023-03-29T16:46:42.787Z,9.66
2023-03-29T16:49:14.071Z,9.62
2023-03-29T16:51:40.854Z,9.59
2023-03-29T16:54:07.609Z,9.58
2023-03-29T16:56:36.632Z,9.54
2023-03-29T16:59:03.917Z,9.48
2023-03-29T17:01:31.660Z,9.44
2023-03-29T17:03:58.493Z,9.39
2023-03-29T17:06:26.611Z,9.41
2023-03-29T17:08:53.933Z,9.35
2023-03-29T17:11:23.489Z,9.35
2023-03-29T17:13:50.461Z,9.29
2023-03-29T17:16:18.100Z,9.27
2023-03-29T17:18:44.907Z,9.25
2023-03-29T17:21:11.734Z,9.22
2023-03-29T17:23:38.533Z,9.18
2023-03-29T17:26:07.238Z,9.14
2023-03-29T17:28:35.039Z,9.10
2023-03-29T17:31:07.645Z,9.07
2023-03-29T17:33:35.145Z,9.02
2023-03-29T17:36:02.263Z,9.02
2023-03-29T17:38:30.817Z,8.99
2023-03-29T17:40:57.600Z,8.98
2023-03-29T17:43:24.442Z,8.93
2023-03-29T17:45:54.721Z,8.93
2023-03-29T17:48:23.341Z,8.93
2023-03-29T17:50:50.150Z,8.92
2023-03-29T17:53:16.908Z,8.91
2023-03-29T17:55:43.761Z,8.89
2023-03-29T17:58:10.476Z,8.87
2023-03-29T18:00:37.602Z,8.85
2023-03-29T18:03:04.405Z,8.79
2023-03-29T18:05:31.239Z,8.74
2023-03-29T18:07:58.060Z,8.75
2023-03-29T18:10:24.861Z,8.70
2023-03-29T18:12:51.997Z,8.68
2023-03-29T18:15:18.804Z,8.68
2023-03-29T18:17:46.196Z,8.64
2023-03-29T18:20:13.729Z,8.63
2023-03-29T18:22:44.176Z,8.61
2023-03-29T18:25:11.320Z,8.60
2023-03-29T18:27:39.732Z,8.55
2023-03-29T18:30:08.863Z,8.57
2023-03-29T18:32:36.514Z,8.57
2023-03-29T18:35:03.781Z,8.57
2023-03-29T18:37:30.600Z,8.56
2023-03-29T18:39:57.306Z,8.55
2023-03-29T18:42:24.146Z,8.57
2023-03-29T18:44:51.651Z,8.54
2023-03-29T18:47:18.642Z,8.61
2023-03-29T18:49:45.491Z,8.58
2023-03-29T18:52:12.413Z,8.59
2023-03-29T18:54:39.368Z,8.55
2023-03-29T18:57:06.537Z,8.53
2023-03-29T18:59:36.010Z,8.52
2023-03-29T19:02:03.672Z,8.51
2023-03-29T19:04:30.696Z,8.51
2023-03-29T19:06:57.507Z,8.45
2023-03-29T19:09:24.203Z,8.46
2023-03-29T19:11:51.151Z,8.47
2023-03-29T19:14:23.544Z,8.48
2023-03-29T19:16:52.167Z,8.49
2023-03-29T19:19:19.384Z,8.46
2023-03-29T19:21:49.699Z,8.48
2023-03-29T19:24:17.265Z,8.48
2023-03-29T19:26:44.948Z,8.46
2023-03-29T19:29:11.935Z,8.46
2023-03-29T19:31:38.964Z,8.46
2023-03-29T19:34:07.089Z,8.49
2023-03-29T19:36:34.012Z,8.45
2023-03-29T19:39:01.147Z,8.44
2023-03-29T19:41:28.501Z,8.43
2023-03-29T19:43:55.316Z,8.39
2023-03-29T19:46:22.640Z,8.37
2023-03-29T19:48:49.517Z,8.39
2023-03-29T19:51:17.007Z,8.36
2023-03-29T19:53:43.777Z,8.35
2023-03-29T19:56:11.209Z,8.35
2023-03-29T19:58:37.910Z,8.30
2023-03-29T20:01:04.712Z,8.30
2023-03-29T20:03:34.381Z,8.34
2023-03-29T20:06:01.654Z,8.33
2023-03-29T20:08:28.621Z,8.35
2023-03-29T20:11:08.298Z,8.36
2023-03-29T20:13:38.671Z,8.30
2023-03-29T20:16:15.086Z,8.25
2023-03-29T20:18:45.068Z,8.22
2023-03-29T20:21:19.290Z,8.24
2023-03-29T20:23:46.246Z,8.24
2023-03-29T20:26:13.213Z,8.25
2023-03-29T20:28:39.975Z,8.24
2023-03-29T20:31:10.963Z,8.33
2023-03-29T20:33:38.289Z,8.34
2023-03-29T20:36:05.944Z,8.31
2023-03-29T20:38:35.905Z,8.28
2023-03-29T20:41:04.648Z,8.37
2023-03-29T20:43:37.753Z,8.37
2023-03-29T20:46:05.558Z,8.37
2023-03-29T20:48:32.421Z,8.33
2023-03-29T20:50:59.211Z,8.31
2023-03-29T20:53:34.747Z,8.38
2023-03-29T20:56:01.567Z,8.35
2023-03-29T20:58:29.395Z,8.36
2023-03-29T21:00:59.083Z,8.31
2023-03-29T21:03:26.190Z,8.30
2023-03-29T21:05:58.400Z,8.36
2023-03-29T21:08:29.020Z,8.35
2023-03-29T21:10:56.551Z,8.33
2023-03-29T21:13:23.718Z,8.39
2023-03-29T21:15:51.334Z,8.33
2023-03-29T21:18:18.162Z,8.31
2023-03-29T21:20:45.014Z,8.29
2023-03-29T21:23:11.725Z,8.24
2023-03-29T21:25:38.630Z,8.22
2023-03-29T21:28:05.777Z,8.24
2023-03-29T21:30:32.513Z,8.26
2023-03-29T21:32:59.356Z,8.27
2023-03-29T21:35:26.251Z,8.22
2023-03-29T21:37:52.982Z,8.24
2023-03-29T21:40:19.871Z,8.20
2023-03-29T21:42:46.595Z,8.20
2023-03-29T21:45:13.316Z,8.19
2023-03-29T21:47:40.157Z,8.22
2023-03-29T21:50:07.356Z,8.32
2023-03-29T21:52:34.175Z,8.28
2023-03-29T21:55:00.933Z,8.33
2023-03-29T21:57:27.775Z,8.36
2023-03-29T21:59:54.622Z,8.34
2023-03-29T22:02:21.591Z,8.39
2023-03-29T22:04:48.566Z,8.45
2023-03-29T22:07:15.367Z,8.39
2023-03-29T22:09:42.766Z,8.31
2023-03-29T22:12:10.155Z,8.28
2023-03-29T22:14:39.693Z,8.22
2023-03-29T22:17:07.133Z,8.22
2023-03-29T22:19:39.364Z,8.22
2023-03-29T22:22:07.045Z,8.23
2023-03-29T22:24:33.811Z,8.20
2023-03-29T22:27:00.535Z,8.20
2023-03-29T22:29:27.316Z,8.18
2023-03-29T22:31:54.081Z,8.18
2023-03-29T22:34:21.411Z,8.18
2023-03-29T22:36:48.302Z,8.17
2023-03-29T22:39:15.010Z,8.33
2023-03-29T22:41:42.216Z,8.25
2023-03-29T22:44:09.334Z,8.34
2023-03-29T22:46:36.322Z,8.31
2023-03-29T22:49:03.057Z,8.26
2023-03-29T22:51:29.777Z,8.18
2023-03-29T22:53:56.500Z,8.15
2023-03-29T22:56:23.453Z,8.21
2023-03-29T22:58:50.226Z,8.14
2023-03-29T23:01:17.081Z,8.11
2023-03-29T23:03:43.892Z,8.11
2023-03-29T23:06:10.824Z,8.10
2023-03-29T23:08:37.682Z,8.08
2023-03-29T23:11:05.077Z,8.07
2023-03-29T23:13:33.612Z,8.04
2023-03-29T23:16:01.839Z,8.02
2023-03-29T23:18:30.385Z,8.01
2023-03-29T23:20:59.125Z,7.98
2023-03-29T23:23:27.464Z,7.97
2023-03-29T23:25:56.026Z,7.96
2023-03-29T23:28:27.448Z,7.88
2023-03-29T23:31:00.590Z,7.86
2023-03-29T23:33:30.749Z,7.86
2023-03-29T23:35:57.553Z,7.88
2023-03-29T23:38:24.365Z,7.90
2023-03-29T23:40:58.899Z,7.91
2023-03-29T23:43:33.020Z,7.89
2023-03-29T23:46:02.425Z,7.92
2023-03-29T23:48:29.897Z,7.91
2023-03-29T23:50:59.737Z,7.96
2023-03-29T23:53:29.184Z,7.99
2023-03-29T23:56:00.597Z,7.93
2023-03-29T23:58:33.069Z,7.90
